sensor_id;sensor_type;location;lat;lon;timestamp;pressure;altitude;pressure_sealevel;temperature;humidity
4617;BME280;2321;42.704;23.384;2023-08-20T00:00:50;95710.19;;;22.71;88.08
4617;BME280;2321;42.704;23.384;2023-08-20T00:03:17;95712.91;;;22.71;88.18
4617;BME280;2321;42.704;23.384;2023-08-20T00:05:46;95707.47;;;22.66;87.42
4617;BME280;2321;42.704;23.384;2023-08-20T00:08:13;95712.59;;;22.62;86.92
4617;BME280;2321;42.704;23.384;2023-08-20T00:10:39;95708.19;;;22.56;87.69
4617;BME280;2321;42.704;23.384;2023-08-20T00:13:06;95704.16;;;22.59;89.83
4617;BME280;2321;42.704;23.384;2023-08-20T00:15:33;95706.59;;;22.60;89.88
4617;BME280;2321;42.704;23.384;2023-08-20T00:18:00;95700.06;;;22.56;91.03
4617;BME280;2321;42.704;23.384;2023-08-20T00:20:28;95700.56;;;22.48;89.75
4617;BME280;2321;42.704;23.384;2023-08-20T00:22:58;95701.59;;;22.41;89.11
4617;BME280;2321;42.704;23.384;2023-08-20T00:25:25;95703.75;;;22.39;89.83
4617;BME280;2321;42.704;23.384;2023-08-20T00:27:52;95704.31;;;22.41;90.41
4617;BME280;2321;42.704;23.384;2023-08-20T00:30:19;95702.13;;;22.38;91.19
4617;BME280;2321;42.704;23.384;2023-08-20T00:32:46;95705.38;;;22.40;91.74
4617;BME280;2321;42.704;23.384;2023-08-20T00:35:13;95712.69;;;22.40;91.18
4617;BME280;2321;42.704;23.384;2023-08-20T00:37:40;95707.28;;;22.40;91.83
4617;BME280;2321;42.704;23.384;2023-08-20T00:40:10;95696.44;;;22.40;92.02
4617;BME280;2321;42.704;23.384;2023-08-20T00:42:37;95701.31;;;22.38;91.68
4617;BME280;2321;42.704;23.384;2023-08-20T00:45:04;95694.22;;;22.37;92.26
4617;BME280;2321;42.704;23.384;2023-08-20T00:47:32;95703.16;;;22.32;92.01
4617;BME280;2321;42.704;23.384;2023-08-20T00:49:58;95698.81;;;22.31;91.79
4617;BME280;2321;42.704;23.384;2023-08-20T00:52:25;95702.59;;;22.30;91.21
4617;BME280;2321;42.704;23.384;2023-08-20T00:54:52;95710.69;;;22.25;90.97
4617;BME280;2321;42.704;23.384;2023-08-20T00:57:22;95707.16;;;22.24;90.79
4617;BME280;2321;42.704;23.384;2023-08-20T00:59:50;95687.53;;;22.12;90.68
4617;BME280;2321;42.704;23.384;2023-08-20T01:02:17;95701.41;;;22.15;90.54
4617;BME280;2321;42.704;23.384;2023-08-20T01:04:45;95698.44;;;22.17;92.33
4617;BME280;2321;42.704;23.384;2023-08-20T01:07:17;95693.81;;;22.17;92.88
4617;BME280;2321;42.704;23.384;2023-08-20T01:09:52;95698.97;;;22.14;92.91
4617;BME280;2321;42.704;23.384;2023-08-20T01:12:26;95689.75;;;22.15;93.56
4617;BME280;2321;42.704;23.384;2023-08-20T01:14:54;95700.59;;;22.15;93.40
4617;BME280;2321;42.704;23.384;2023-08-20T01:17:21;95696.81;;;22.16;93.96
4617;BME280;2321;42.704;23.384;2023-08-20T01:19:48;95694.91;;;22.16;93.94
4617;BME280;2321;42.704;23.384;2023-08-20T01:22:35;95696.25;;;22.14;93.28
4617;BME280;2321;42.704;23.384;2023-08-20T01:25:14;95700.59;;;22.15;93.22
4617;BME280;2321;42.704;23.384;2023-08-20T01:27:52;95706.84;;;22.15;93.47
4617;BME280;2321;42.704;23.384;2023-08-20T01:30:26;95701.16;;;22.17;93.48
4617;BME280;2321;42.704;23.384;2023-08-20T01:32:55;95699.25;;;22.17;93.35
4617;BME280;2321;42.704;23.384;2023-08-20T01:35:23;95696.28;;;22.19;93.73
4617;BME280;2321;42.704;23.384;2023-08-20T01:37:50;95695.22;;;22.20;92.67
4617;BME280;2321;42.704;23.384;2023-08-20T01:40:17;95691.69;;;22.19;92.80
4617;BME280;2321;42.704;23.384;2023-08-20T01:42:43;95692.50;;;22.20;93.15
4617;BME280;2321;42.704;23.384;2023-08-20T01:45:10;95682.47;;;22.20;92.04
4617;BME280;2321;42.704;23.384;2023-08-20T01:47:38;95675.41;;;22.19;91.08
4617;BME280;2321;42.704;23.384;2023-08-20T01:50:05;95678.66;;;22.16;91.26
4617;BME280;2321;42.704;23.384;2023-08-20T01:52:32;95680.84;;;22.19;92.80
4617;BME280;2321;42.704;23.384;2023-08-20T01:55:00;95667.28;;;22.19;93.54
4617;BME280;2321;42.704;23.384;2023-08-20T01:57:26;95669.94;;;22.14;94.00
4617;BME280;2321;42.704;23.384;2023-08-20T01:59:53;95667.22;;;22.14;94.29
4617;BME280;2321;42.704;23.384;2023-08-20T02:02:19;95666.97;;;22.16;94.17
4617;BME280;2321;42.704;23.384;2023-08-20T02:04:47;95655.31;;;22.15;94.17
4617;BME280;2321;42.704;23.384;2023-08-20T02:07:14;95662.06;;;22.13;94.99
4617;BME280;2321;42.704;23.384;2023-08-20T02:09:41;95660.19;;;22.13;94.38
4617;BME280;2321;42.704;23.384;2023-08-20T02:12:07;95657.47;;;22.13;93.96
4617;BME280;2321;42.704;23.384;2023-08-20T02:14:34;95655.28;;;22.10;94.04
4617;BME280;2321;42.704;23.384;2023-08-20T02:17:01;95650.38;;;22.07;94.18
4617;BME280;2321;42.704;23.384;2023-08-20T02:19:28;95650.38;;;22.07;93.98
4617;BME280;2321;42.704;23.384;2023-08-20T02:21:55;95639.50;;;22.02;93.74
4617;BME280;2321;42.704;23.384;2023-08-20T02:24:22;95652.50;;;21.99;93.30
4617;BME280;2321;42.704;23.384;2023-08-20T02:26:49;95654.38;;;21.99;93.86
4617;BME280;2321;42.704;23.384;2023-08-20T02:29:15;95641.34;;;21.96;93.97
4617;BME280;2321;42.704;23.384;2023-08-20T02:31:42;95644.25;;;21.89;94.19
4617;BME280;2321;42.704;23.384;2023-08-20T02:34:09;95638.03;;;21.88;94.94
4617;BME280;2321;42.704;23.384;2023-08-20T02:36:35;95643.69;;;21.87;94.93
4617;BME280;2321;42.704;23.384;2023-08-20T02:39:04;95649.63;;;21.84;95.03
4617;BME280;2321;42.704;23.384;2023-08-20T02:41:32;95655.00;;;21.79;95.12
4617;BME280;2321;42.704;23.384;2023-08-20T02:43:59;95653.84;;;21.69;95.86
4617;BME280;2321;42.704;23.384;2023-08-20T02:46:25;95649.22;;;21.64;96.49
4617;BME280;2321;42.704;23.384;2023-08-20T02:48:52;95660.28;;;21.63;96.96
4617;BME280;2321;42.704;23.384;2023-08-20T02:51:19;95655.69;;;21.63;97.89
4617;BME280;2321;42.704;23.384;2023-08-20T02:53:45;95659.47;;;21.62;97.77
4617;BME280;2321;42.704;23.384;2023-08-20T02:56:13;95649.41;;;21.58;98.20
4617;BME280;2321;42.704;23.384;2023-08-20T02:58:40;95655.34;;;21.54;97.63
4617;BME280;2321;42.704;23.384;2023-08-20T03:01:17;95658.28;;;21.53;97.09
4617;BME280;2321;42.704;23.384;2023-08-20T03:03:44;95649.63;;;21.51;98.18
4617;BME280;2321;42.704;23.384;2023-08-20T03:06:10;95659.63;;;21.50;99.48
4617;BME280;2321;42.704;23.384;2023-08-20T03:08:37;95659.06;;;21.48;99.82
4617;BME280;2321;42.704;23.384;2023-08-20T03:11:04;95662.06;;;21.47;100.00
4617;BME280;2321;42.704;23.384;2023-08-20T03:13:32;95667.34;;;21.36;100.00
4617;BME280;2321;42.704;23.384;2023-08-20T03:15:58;95656.53;;;21.36;99.76
4617;BME280;2321;42.704;23.384;2023-08-20T03:18:25;95660.59;;;21.39;99.55
4617;BME280;2321;42.704;23.384;2023-08-20T03:20:53;95659.25;;;21.36;100.00
4617;BME280;2321;42.704;23.384;2023-08-20T03:23:20;95664.34;;;21.32;100.00
4617;BME280;2321;42.704;23.384;2023-08-20T03:25:47;95662.19;;;21.34;100.00
4617;BME280;2321;42.704;23.384;2023-08-20T03:28:13;95665.16;;;21.33;99.86
4617;BME280;2321;42.704;23.384;2023-08-20T03:30:41;95663.00;;;21.35;99.96
4617;BME280;2321;42.704;23.384;2023-08-20T03:33:08;95660.50;;;21.28;100.00
4617;BME280;2321;42.704;23.384;2023-08-20T03:35:35;95663.16;;;21.23;100.00
4617;BME280;2321;42.704;23.384;2023-08-20T03:38:01;95659.84;;;21.16;100.00
4617;BME280;2321;42.704;23.384;2023-08-20T03:40:28;95656.03;;;21.17;100.00
4617;BME280;2321;42.704;23.384;2023-08-20T03:42:55;95663.66;;;21.20;100.00
4617;BME280;2321;42.704;23.384;2023-08-20T03:45:22;95663.66;;;21.20;100.00
4617;BME280;2321;42.704;23.384;2023-08-20T03:47:50;95655.03;;;21.23;100.00
4617;BME280;2321;42.704;23.384;2023-08-20T03:50:17;95645.81;;;21.19;100.00
4617;BME280;2321;42.704;23.384;2023-08-20T03:52:43;95639.81;;;21.17;100.00
4617;BME280;2321;42.704;23.384;2023-08-20T03:55:10;95648.44;;;21.14;100.00
4617;BME280;2321;42.704;23.384;2023-08-20T03:57:37;95649.53;;;21.13;100.00
4617;BME280;2321;42.704;23.384;2023-08-20T04:00:05;95645.59;;;21.03;100.00
4617;BME280;2321;42.704;23.384;2023-08-20T04:02:35;95648.22;;;20.98;100.00
4617;BME280;2321;42.704;23.384;2023-08-20T04:05:03;95649.03;;;20.98;100.00
4617;BME280;2321;42.704;23.384;2023-08-20T04:07:30;95652.03;;;20.97;100.00
4617;BME280;2321;42.704;23.384;2023-08-20T04:09:57;95651.19;;;20.96;100.00
4617;BME280;2321;42.704;23.384;2023-08-20T04:12:24;95647.66;;;20.96;100.00
4617;BME280;2321;42.704;23.384;2023-08-20T04:14:51;95644.66;;;20.92;100.00
4617;BME280;2321;42.704;23.384;2023-08-20T04:17:18;95650.66;;;20.94;100.00
4617;BME280;2321;42.704;23.384;2023-08-20T04:19:45;95650.25;;;20.85;100.00
4617;BME280;2321;42.704;23.384;2023-08-20T04:22:13;95643.53;;;20.88;100.00
4617;BME280;2321;42.704;23.384;2023-08-20T04:24:40;95644.84;;;20.85;100.00
4617;BME280;2321;42.704;23.384;2023-08-20T04:27:07;95655.66;;;20.85;100.00
4617;BME280;2321;42.704;23.384;2023-08-20T04:29:34;95658.94;;;20.87;100.00
4617;BME280;2321;42.704;23.384;2023-08-20T04:32:01;95655.28;;;20.76;100.00
4617;BME280;2321;42.704;23.384;2023-08-20T04:34:27;95656.19;;;20.82;100.00
4617;BME280;2321;42.704;23.384;2023-08-20T04:36:54;95659.44;;;20.84;100.00
4617;BME280;2321;42.704;23.384;2023-08-20T04:39:23;95651.84;;;20.81;100.00
4617;BME280;2321;42.704;23.384;2023-08-20T04:41:49;95654.59;;;20.86;100.00
4617;BME280;2321;42.704;23.384;2023-08-20T04:44:16;95656.78;;;20.89;100.00
4617;BME280;2321;42.704;23.384;2023-08-20T04:46:43;95659.19;;;20.86;100.00
4617;BME280;2321;42.704;23.384;2023-08-20T04:49:10;95667.56;;;20.84;100.00
4617;BME280;2321;42.704;23.384;2023-08-20T04:51:37;95656.78;;;20.89;100.00
4617;BME280;2321;42.704;23.384;2023-08-20T04:54:04;95657.47;;;20.79;100.00
4617;BME280;2321;42.704;23.384;2023-08-20T04:56:32;95660.44;;;20.78;100.00
4617;BME280;2321;42.704;23.384;2023-08-20T04:58:59;95663.16;;;20.78;100.00
4617;BME280;2321;42.704;23.384;2023-08-20T05:01:26;95666.38;;;20.75;100.00
4617;BME280;2321;42.704;23.384;2023-08-20T05:03:53;95666.03;;;20.71;100.00
4617;BME280;2321;42.704;23.384;2023-08-20T05:06:19;95675.72;;;20.67;100.00
4617;BME280;2321;42.704;23.384;2023-08-20T05:08:46;95662.91;;;20.57;100.00
4617;BME280;2321;42.704;23.384;2023-08-20T05:11:13;95668.47;;;20.50;100.00
4617;BME280;2321;42.704;23.384;2023-08-20T05:13:41;95671.84;;;20.57;100.00
4617;BME280;2321;42.704;23.384;2023-08-20T05:16:08;95677.91;;;20.70;100.00
4617;BME280;2321;42.704;23.384;2023-08-20T05:18:35;95669.72;;;20.82;100.00
4617;BME280;2321;42.704;23.384;2023-08-20T05:21:02;95670.97;;;20.97;100.00
4617;BME280;2321;42.704;23.384;2023-08-20T05:23:28;95674.38;;;21.09;100.00
4617;BME280;2321;42.704;23.384;2023-08-20T05:25:55;95675.25;;;21.15;100.00
4617;BME280;2321;42.704;23.384;2023-08-20T05:28:22;95683.94;;;21.17;100.00
4617;BME280;2321;42.704;23.384;2023-08-20T05:30:55;95685.91;;;21.22;100.00
4617;BME280;2321;42.704;23.384;2023-08-20T05:33:22;95683.81;;;21.29;100.00
4617;BME280;2321;42.704;23.384;2023-08-20T05:35:49;95688.00;;;21.42;100.00
4617;BME280;2321;42.704;23.384;2023-08-20T05:38:16;95687.84;;;21.54;100.00
4617;BME280;2321;42.704;23.384;2023-08-20T05:40:43;95689.84;;;21.64;100.00
4617;BME280;2321;42.704;23.384;2023-08-20T05:43:09;95685.03;;;21.72;100.00
4617;BME280;2321;42.704;23.384;2023-08-20T05:45:36;95694.84;;;21.78;100.00
4617;BME280;2321;42.704;23.384;2023-08-20T05:48:04;95692.22;;;21.88;100.00
4617;BME280;2321;42.704;23.384;2023-08-20T05:50:31;95701.78;;;21.96;100.00
4617;BME280;2321;42.704;23.384;2023-08-20T05:52:58;95695.41;;;22.08;99.82
4617;BME280;2321;42.704;23.384;2023-08-20T05:55:25;95704.63;;;22.12;98.71
4617;BME280;2321;42.704;23.384;2023-08-20T05:57:51;95697.13;;;22.25;99.31
4617;BME280;2321;42.704;23.384;2023-08-20T06:00:18;95692.91;;;22.39;98.88
4617;BME280;2321;42.704;23.384;2023-08-20T06:02:45;95691.88;;;22.51;97.98
4617;BME280;2321;42.704;23.384;2023-08-20T06:05:13;95688.16;;;22.62;98.11
4617;BME280;2321;42.704;23.384;2023-08-20T06:07:40;95691.00;;;22.78;99.63
4617;BME280;2321;42.704;23.384;2023-08-20T06:10:07;95687.25;;;22.90;96.25
4617;BME280;2321;42.704;23.384;2023-08-20T06:12:34;95693.56;;;23.06;93.85
4617;BME280;2321;42.704;23.384;2023-08-20T06:15:00;95687.63;;;23.20;93.44
4617;BME280;2321;42.704;23.384;2023-08-20T06:17:27;95687.38;;;23.32;92.03
4617;BME280;2321;42.704;23.384;2023-08-20T06:19:54;95692.84;;;23.42;89.43
4617;BME280;2321;42.704;23.384;2023-08-20T06:22:22;95695.34;;;23.54;90.81
4617;BME280;2321;42.704;23.384;2023-08-20T06:24:48;95698.63;;;23.67;89.36
4617;BME280;2321;42.704;23.384;2023-08-20T06:27:15;95701.88;;;23.69;86.60
4617;BME280;2321;42.704;23.384;2023-08-20T06:29:42;95700.00;;;23.80;86.37
4617;BME280;2321;42.704;23.384;2023-08-20T06:32:08;95704.63;;;23.90;87.83
4617;BME280;2321;42.704;23.384;2023-08-20T06:34:35;95700.28;;;24.04;87.14
4617;BME280;2321;42.704;23.384;2023-08-20T06:37:02;95704.34;;;24.18;85.29
4617;BME280;2321;42.704;23.384;2023-08-20T06:39:30;95703.28;;;24.29;84.04
4617;BME280;2321;42.704;23.384;2023-08-20T06:41:56;95696.22;;;24.44;84.35
4617;BME280;2321;42.704;23.384;2023-08-20T06:44:23;95696.19;;;24.54;85.07
4617;BME280;2321;42.704;23.384;2023-08-20T06:46:50;95702.41;;;24.70;84.26
4617;BME280;2321;42.704;23.384;2023-08-20T06:49:16;95698.84;;;24.86;84.12
4617;BME280;2321;42.704;23.384;2023-08-20T06:51:43;95700.94;;;24.99;81.13
4617;BME280;2321;42.704;23.384;2023-08-20T06:54:09;95698.22;;;25.10;79.11
4617;BME280;2321;42.704;23.384;2023-08-20T06:56:37;95693.53;;;25.21;79.87
4617;BME280;2321;42.704;23.384;2023-08-20T06:59:04;95700.03;;;25.35;79.60
4617;BME280;2321;42.704;23.384;2023-08-20T07:01:31;95700.25;;;25.44;73.85
4617;BME280;2321;42.704;23.384;2023-08-20T07:03:57;95702.09;;;25.54;73.64
4617;BME280;2321;42.704;23.384;2023-08-20T07:06:24;95701.75;;;25.66;72.60
4617;BME280;2321;42.704;23.384;2023-08-20T07:08:51;95696.78;;;25.74;71.51
4617;BME280;2321;42.704;23.384;2023-08-20T07:11:17;95700.25;;;25.90;71.66
4617;BME280;2321;42.704;23.384;2023-08-20T07:13:45;95700.41;;;26.04;69.34
4617;BME280;2321;42.704;23.384;2023-08-20T07:16:12;95699.81;;;26.13;68.90
4617;BME280;2321;42.704;23.384;2023-08-20T07:18:38;95698.88;;;26.28;66.62
4617;BME280;2321;42.704;23.384;2023-08-20T07:21:05;95694.13;;;26.39;70.52
4617;BME280;2321;42.704;23.384;2023-08-20T07:23:32;95699.97;;;26.57;67.60
4617;BME280;2321;42.704;23.384;2023-08-20T07:26:05;95691.34;;;26.74;66.07
4617;BME280;2321;42.704;23.384;2023-08-20T07:28:32;95694.72;;;26.90;65.17
4617;BME280;2321;42.704;23.384;2023-08-20T07:31:14;95699.41;;;27.09;60.99
4617;BME280;2321;42.704;23.384;2023-08-20T07:33:40;95696.00;;;27.23;58.01
4617;BME280;2321;42.704;23.384;2023-08-20T07:36:07;95695.72;;;27.44;60.47
4617;BME280;2321;42.704;23.384;2023-08-20T07:38:34;95693.28;;;27.61;56.86
4617;BME280;2321;42.704;23.384;2023-08-20T07:41:06;95696.91;;;27.76;56.17
4617;BME280;2321;42.704;23.384;2023-08-20T07:43:33;95696.78;;;27.87;55.40
4617;BME280;2321;42.704;23.384;2023-08-20T07:45:59;95697.06;;;28.04;54.93
4617;BME280;2321;42.704;23.384;2023-08-20T07:48:27;95700.72;;;28.14;54.88
4617;BME280;2321;42.704;23.384;2023-08-20T07:50:54;95703.59;;;28.23;54.19
4617;BME280;2321;42.704;23.384;2023-08-20T07:53:20;95710.28;;;28.31;53.83
4617;BME280;2321;42.704;23.384;2023-08-20T07:55:47;95700.28;;;28.40;52.73
4617;BME280;2321;42.704;23.384;2023-08-20T07:58:14;95695.25;;;28.47;53.31
4617;BME280;2321;42.704;23.384;2023-08-20T08:00:40;95700.56;;;28.58;52.47
4617;BME280;2321;42.704;23.384;2023-08-20T08:03:07;95700.25;;;28.74;51.83
4617;BME280;2321;42.704;23.384;2023-08-20T08:05:36;95709.41;;;28.83;51.64
4617;BME280;2321;42.704;23.384;2023-08-20T08:08:03;95694.81;;;28.88;50.57
4617;BME280;2321;42.704;23.384;2023-08-20T08:10:29;95691.66;;;28.95;49.76
4617;BME280;2321;42.704;23.384;2023-08-20T08:12:56;95692.25;;;29.06;48.76
4617;BME280;2321;42.704;23.384;2023-08-20T08:15:22;95701.41;;;29.15;48.69
4617;BME280;2321;42.704;23.384;2023-08-20T08:17:49;95689.63;;;29.14;48.83
4617;BME280;2321;42.704;23.384;2023-08-20T08:20:15;95695.22;;;29.23;47.60
4617;BME280;2321;42.704;23.384;2023-08-20T08:22:43;95693.38;;;29.33;47.58
4617;BME280;2321;42.704;23.384;2023-08-20T08:25:10;95693.16;;;29.43;47.30
4617;BME280;2321;42.704;23.384;2023-08-20T08:27:36;95700.72;;;29.61;47.20
4617;BME280;2321;42.704;23.384;2023-08-20T08:30:03;95694.94;;;29.76;45.92
4617;BME280;2321;42.704;23.384;2023-08-20T08:32:30;95693.88;;;29.86;44.52
4617;BME280;2321;42.704;23.384;2023-08-20T08:34:57;95688.47;;;29.95;43.67
4617;BME280;2321;42.704;23.384;2023-08-20T08:37:23;95691.56;;;30.02;44.43
4617;BME280;2321;42.704;23.384;2023-08-20T08:39:51;95693.38;;;30.07;45.33
4617;BME280;2321;42.704;23.384;2023-08-20T08:42:18;95693.44;;;30.16;44.03
4617;BME280;2321;42.704;23.384;2023-08-20T08:44:48;95693.63;;;30.20;42.04
4617;BME280;2321;42.704;23.384;2023-08-20T08:47:16;95695.56;;;30.19;40.91
4617;BME280;2321;42.704;23.384;2023-08-20T08:49:42;95691.84;;;30.24;41.04
4617;BME280;2321;42.704;23.384;2023-08-20T08:52:10;95691.19;;;30.18;40.90
4617;BME280;2321;42.704;23.384;2023-08-20T08:54:37;95689.75;;;30.21;43.19
4617;BME280;2321;42.704;23.384;2023-08-20T08:57:05;95697.19;;;30.20;42.21
4617;BME280;2321;42.704;23.384;2023-08-20T08:59:32;95693.97;;;30.27;40.16
4617;BME280;2321;42.704;23.384;2023-08-20T09:01:58;95691.06;;;30.23;40.38
4617;BME280;2321;42.704;23.384;2023-08-20T09:04:26;95678.91;;;30.16;40.59
4617;BME280;2321;42.704;23.384;2023-08-20T09:06:53;95689.38;;;30.13;41.12
4617;BME280;2321;42.704;23.384;2023-08-20T09:09:21;95692.44;;;30.12;39.93
4617;BME280;2321;42.704;23.384;2023-08-20T09:11:48;95688.91;;;30.11;40.48
4617;BME280;2321;42.704;23.384;2023-08-20T09:14:22;95685.69;;;30.18;41.17
4617;BME280;2321;42.704;23.384;2023-08-20T09:16:53;95682.25;;;30.36;41.40
4617;BME280;2321;42.704;23.384;2023-08-20T09:19:20;95683.69;;;30.56;40.39
4617;BME280;2321;42.704;23.384;2023-08-20T09:21:47;95686.00;;;30.72;38.92
4617;BME280;2321;42.704;23.384;2023-08-20T09:24:14;95685.91;;;30.86;39.89
4617;BME280;2321;42.704;23.384;2023-08-20T09:26:44;95681.88;;;30.92;39.20
4617;BME280;2321;42.704;23.384;2023-08-20T09:29:11;95682.06;;;30.96;38.40
4617;BME280;2321;42.704;23.384;2023-08-20T09:31:39;95688.53;;;30.91;38.29
4617;BME280;2321;42.704;23.384;2023-08-20T09:34:11;95685.06;;;30.85;36.69
4617;BME280;2321;42.704;23.384;2023-08-20T09:36:38;95682.97;;;30.82;36.47
4617;BME280;2321;42.704;23.384;2023-08-20T09:39:05;95680.22;;;30.82;36.81
4617;BME280;2321;42.704;23.384;2023-08-20T09:41:31;95684.22;;;30.76;36.31
4617;BME280;2321;42.704;23.384;2023-08-20T09:44:01;95679.72;;;30.80;36.05
4617;BME280;2321;42.704;23.384;2023-08-20T09:46:30;95674.88;;;30.77;36.89
4617;BME280;2321;42.704;23.384;2023-08-20T09:48:59;95676.97;;;30.80;35.27
4617;BME280;2321;42.704;23.384;2023-08-20T09:51:26;95675.22;;;30.84;35.93
4617;BME280;2321;42.704;23.384;2023-08-20T09:54:00;95681.75;;;30.97;36.65
4617;BME280;2321;42.704;23.384;2023-08-20T09:56:30;95672.91;;;31.09;35.03
4617;BME280;2321;42.704;23.384;2023-08-20T09:58:58;95665.97;;;31.21;35.64
4617;BME280;2321;42.704;23.384;2023-08-20T10:01:25;95668.25;;;31.28;35.98
4617;BME280;2321;42.704;23.384;2023-08-20T10:03:53;95678.47;;;31.36;35.86
4617;BME280;2321;42.704;23.384;2023-08-20T10:06:21;95674.44;;;31.51;37.48
4617;BME280;2321;42.704;23.384;2023-08-20T10:08:50;95677.84;;;31.57;34.92
4617;BME280;2321;42.704;23.384;2023-08-20T10:11:17;95674.00;;;31.58;34.67
4617;BME280;2321;42.704;23.384;2023-08-20T10:13:44;95673.78;;;31.54;35.41
4617;BME280;2321;42.704;23.384;2023-08-20T10:16:12;95674.75;;;31.50;34.69
4617;BME280;2321;42.704;23.384;2023-08-20T10:18:39;95674.75;;;31.50;35.45
4617;BME280;2321;42.704;23.384;2023-08-20T10:21:07;95667.50;;;31.63;35.23
4617;BME280;2321;42.704;23.384;2023-08-20T10:23:40;95672.84;;;31.68;34.78
4617;BME280;2321;42.704;23.384;2023-08-20T10:26:08;95667.00;;;31.79;35.41
4617;BME280;2321;42.704;23.384;2023-08-20T10:28:36;95668.78;;;31.83;35.20
4617;BME280;2321;42.704;23.384;2023-08-20T10:31:04;95668.78;;;31.74;34.68
4617;BME280;2321;42.704;23.384;2023-08-20T10:33:33;95670.25;;;31.72;33.74
4617;BME280;2321;42.704;23.384;2023-08-20T10:36:07;95658.94;;;31.73;35.77
4617;BME280;2321;42.704;23.384;2023-08-20T10:38:37;95666.84;;;31.84;36.19
4617;BME280;2321;42.704;23.384;2023-08-20T10:41:06;95654.53;;;31.90;34.98
4617;BME280;2321;42.704;23.384;2023-08-20T10:43:34;95653.09;;;31.84;34.35
4617;BME280;2321;42.704;23.384;2023-08-20T10:46:06;95660.22;;;31.85;35.57
4617;BME280;2321;42.704;23.384;2023-08-20T10:48:34;95647.91;;;31.91;34.33
4617;BME280;2321;42.704;23.384;2023-08-20T10:51:11;95645.47;;;31.90;34.21
4617;BME280;2321;42.704;23.384;2023-08-20T10:53:40;95644.31;;;32.00;34.25
4617;BME280;2321;42.704;23.384;2023-08-20T10:56:12;95646.75;;;32.19;35.02
4617;BME280;2321;42.704;23.384;2023-08-20T10:58:43;95649.13;;;32.38;33.53
4617;BME280;2321;42.704;23.384;2023-08-20T11:01:15;95646.97;;;32.53;34.75
4617;BME280;2321;42.704;23.384;2023-08-20T11:03:43;95633.78;;;32.68;33.40
4617;BME280;2321;42.704;23.384;2023-08-20T11:06:11;95644.66;;;32.73;33.68
4617;BME280;2321;42.704;23.384;2023-08-20T11:08:39;95640.75;;;32.74;32.02
4617;BME280;2321;42.704;23.384;2023-08-20T11:11:07;95633.97;;;32.71;32.61
4617;BME280;2321;42.704;23.384;2023-08-20T11:13:35;95627.66;;;32.62;32.64
4617;BME280;2321;42.704;23.384;2023-08-20T11:16:02;95631.38;;;32.57;32.66
4617;BME280;2321;42.704;23.384;2023-08-20T11:18:30;95641.44;;;32.62;33.68
4617;BME280;2321;42.704;23.384;2023-08-20T11:20:58;95630.69;;;32.69;33.26
4617;BME280;2321;42.704;23.384;2023-08-20T11:23:25;95626.13;;;32.82;33.66
4617;BME280;2321;42.704;23.384;2023-08-20T11:25:53;95624.59;;;32.94;32.81
4617;BME280;2321;42.704;23.384;2023-08-20T11:28:20;95630.50;;;32.83;33.16
4617;BME280;2321;42.704;23.384;2023-08-20T11:30:47;95620.66;;;32.65;33.12
4617;BME280;2321;42.704;23.384;2023-08-20T11:33:14;95623.75;;;32.63;34.80
4617;BME280;2321;42.704;23.384;2023-08-20T11:35:41;95625.34;;;32.73;34.04
4617;BME280;2321;42.704;23.384;2023-08-20T11:38:09;95629.84;;;32.87;33.18
4617;BME280;2321;42.704;23.384;2023-08-20T11:40:36;95621.97;;;32.98;34.85
4617;BME280;2321;42.704;23.384;2023-08-20T11:43:05;95608.00;;;33.03;34.26
4617;BME280;2321;42.704;23.384;2023-08-20T11:45:33;95618.50;;;33.10;33.23
4617;BME280;2321;42.704;23.384;2023-08-20T11:48:10;95611.47;;;33.21;33.13
4617;BME280;2321;42.704;23.384;2023-08-20T11:50:37;95614.78;;;33.36;33.22
4617;BME280;2321;42.704;23.384;2023-08-20T11:53:04;95614.84;;;33.48;33.82
4617;BME280;2321;42.704;23.384;2023-08-20T11:55:31;95599.22;;;33.53;32.89
4617;BME280;2321;42.704;23.384;2023-08-20T11:57:58;95606.22;;;33.50;33.96
4617;BME280;2321;42.704;23.384;2023-08-20T12:00:27;95604.88;;;33.56;33.68
4617;BME280;2321;42.704;23.384;2023-08-20T12:02:54;95613.75;;;33.62;33.55
4617;BME280;2321;42.704;23.384;2023-08-20T12:05:21;95607.50;;;33.53;32.83
4617;BME280;2321;42.704;23.384;2023-08-20T12:07:56;95604.88;;;33.35;33.11
4617;BME280;2321;42.704;23.384;2023-08-20T12:10:27;95599.59;;;33.30;33.56
4617;BME280;2321;42.704;23.384;2023-08-20T12:12:54;95591.66;;;33.19;33.68
4617;BME280;2321;42.704;23.384;2023-08-20T12:15:22;95598.34;;;33.18;34.29
4617;BME280;2321;42.704;23.384;2023-08-20T12:18:01;95592.13;;;33.30;34.37
4617;BME280;2321;42.704;23.384;2023-08-20T12:20:30;95583.94;;;33.34;33.74
4617;BME280;2321;42.704;23.384;2023-08-20T12:23:02;95597.06;;;33.37;34.11
4617;BME280;2321;42.704;23.384;2023-08-20T12:25:31;95589.44;;;33.43;33.63
4617;BME280;2321;42.704;23.384;2023-08-20T12:27:59;95583.91;;;33.43;32.58
4617;BME280;2321;42.704;23.384;2023-08-20T12:30:26;95583.78;;;33.39;33.19
4617;BME280;2321;42.704;23.384;2023-08-20T12:32:53;95583.63;;;33.35;34.66
4617;BME280;2321;42.704;23.384;2023-08-20T12:35:21;95577.22;;;33.22;33.22
4617;BME280;2321;42.704;23.384;2023-08-20T12:37:48;95586.00;;;33.15;33.76
4617;BME280;2321;42.704;23.384;2023-08-20T12:40:15;95586.16;;;33.19;34.64
4617;BME280;2321;42.704;23.384;2023-08-20T12:42:43;95578.13;;;33.35;34.20
4617;BME280;2321;42.704;23.384;2023-08-20T12:45:10;95582.88;;;33.47;33.01
4617;BME280;2321;42.704;23.384;2023-08-20T12:47:39;95578.41;;;33.55;33.97
4617;BME280;2321;42.704;23.384;2023-08-20T12:50:06;95577.56;;;33.64;33.67
4617;BME280;2321;42.704;23.384;2023-08-20T12:52:34;95571.22;;;33.63;33.12
4617;BME280;2321;42.704;23.384;2023-08-20T12:55:02;95570.13;;;33.55;33.72
4617;BME280;2321;42.704;23.384;2023-08-20T12:57:29;95572.78;;;33.52;33.33
4617;BME280;2321;42.704;23.384;2023-08-20T12:59:56;95572.66;;;33.48;33.32
4617;BME280;2321;42.704;23.384;2023-08-20T13:02:24;95566.66;;;33.46;32.90
4617;BME280;2321;42.704;23.384;2023-08-20T13:04:54;95568.72;;;33.49;33.55
4617;BME280;2321;42.704;23.384;2023-08-20T13:07:22;95569.00;;;33.56;33.73
4617;BME280;2321;42.704;23.384;2023-08-20T13:09:51;95564.22;;;33.66;34.08
4617;BME280;2321;42.704;23.384;2023-08-20T13:12:18;95569.19;;;33.73;33.15